createdAt,value
2018-03-29T00:00:57.898Z,3.10
2018-03-29T00:03:28.866Z,2.80
2018-03-29T00:05:59.739Z,3.27
2018-03-29T00:08:30.586Z,3.00
2018-03-29T00:11:01.422Z,3.57
2018-03-29T00:13:32.318Z,3.43
2018-03-29T00:16:03.193Z,3.23
2018-03-29T00:18:34.070Z,3.70
2018-03-29T00:21:04.943Z,3.37
2018-03-29T00:23:35.797Z,3.47
2018-03-29T00:26:06.627Z,3.13
2018-03-29T00:28:37.543Z,3.17
2018-03-29T00:31:08.367Z,3.27
2018-03-29T00:33:39.249Z,2.70
2018-03-29T00:36:10.040Z,2.50
2018-03-29T00:38:40.940Z,2.97
2018-03-29T00:41:11.866Z,2.50
2018-03-29T00:43:42.735Z,2.70
2018-03-29T00:46:13.570Z,2.20
2018-03-29T00:48:44.412Z,2.80
2018-03-29T00:51:15.255Z,2.70
2018-03-29T00:53:46.161Z,2.80
2018-03-29T00:56:16.983Z,4.33
2018-03-29T00:58:47.858Z,4.80
2018-03-29T01:01:18.676Z,3.50
2018-03-29T01:03:49.488Z,2.50
2018-03-29T01:06:20.307Z,2.90
2018-03-29T01:08:51.150Z,2.80
2018-03-29T01:11:21.963Z,3.10
2018-03-29T01:13:52.988Z,3.10
2018-03-29T01:16:23.840Z,2.90
2018-03-29T01:18:54.723Z,2.83
2018-03-29T01:21:25.572Z,3.17
2018-03-29T01:23:56.399Z,2.67
2018-03-29T01:26:27.253Z,2.50
2018-03-29T01:28:58.107Z,2.40
2018-03-29T01:31:28.934Z,2.33
2018-03-29T01:33:59.802Z,2.40
2018-03-29T01:36:30.642Z,2.40
2018-03-29T01:39:01.471Z,3.03
2018-03-29T01:41:32.293Z,3.30
2018-03-29T01:44:03.183Z,3.17
2018-03-29T01:46:34.038Z,4.00
2018-03-29T01:49:04.870Z,2.90
2018-03-29T01:51:35.683Z,3.10
2018-03-29T01:54:06.545Z,2.60
2018-03-29T01:56:37.405Z,3.20
2018-03-29T01:59:08.267Z,2.87
2018-03-29T02:01:39.073Z,3.10
2018-03-29T02:04:09.916Z,2.97
2018-03-29T02:06:40.747Z,3.67
2018-03-29T02:09:11.643Z,3.37
2018-03-29T02:11:42.515Z,3.20
2018-03-29T02:14:13.360Z,3.03
2018-03-29T02:16:45.233Z,4.07
2018-03-29T02:19:16.128Z,3.37
2018-03-29T02:21:46.991Z,2.53
2018-03-29T02:24:17.829Z,3.50
2018-03-29T02:26:48.669Z,2.77
2018-03-29T02:29:19.544Z,3.10
2018-03-29T02:31:50.420Z,2.33
2018-03-29T02:34:21.265Z,3.13
2018-03-29T02:36:52.144Z,2.50
2018-03-29T02:39:23.022Z,3.80
2018-03-29T02:41:53.888Z,3.43
2018-03-29T02:44:24.725Z,2.97
2018-03-29T02:46:55.559Z,2.90
2018-03-29T02:49:26.471Z,2.80
2018-03-29T02:51:57.341Z,3.07
2018-03-29T02:54:28.232Z,4.10
2018-03-29T02:56:59.050Z,3.90
2018-03-29T02:59:29.879Z,3.90
2018-03-29T03:02:00.715Z,3.53
2018-03-29T03:04:31.557Z,4.13
2018-03-29T03:07:02.390Z,4.10
2018-03-29T03:09:33.248Z,3.60
2018-03-29T03:12:04.038Z,4.23
2018-03-29T03:14:34.878Z,3.77
2018-03-29T03:17:05.702Z,4.30
2018-03-29T03:19:36.571Z,3.93
2018-03-29T03:22:07.377Z,4.03
2018-03-29T03:24:38.281Z,3.60
2018-03-29T03:27:09.149Z,4.43
2018-03-29T03:29:40.001Z,4.33
2018-03-29T03:32:10.806Z,5.13
2018-03-29T03:34:41.637Z,4.37
2018-03-29T03:37:12.498Z,6.00
2018-03-29T03:39:43.412Z,5.13
2018-03-29T03:42:14.271Z,4.30
2018-03-29T03:44:45.105Z,4.40
2018-03-29T03:47:15.943Z,4.23
2018-03-29T03:49:46.787Z,5.33
2018-03-29T03:52:17.632Z,5.33
2018-03-29T03:54:48.537Z,5.27
2018-03-29T03:57:19.389Z,5.00
2018-03-29T03:59:50.210Z,5.00
2018-03-29T04:02:21.069Z,5.07
2018-03-29T04:04:51.941Z,4.80
2018-03-29T04:07:22.814Z,4.70
2018-03-29T04:09:53.645Z,5.27
2018-03-29T04:12:24.519Z,5.70
2018-03-29T04:14:55.330Z,4.50
2018-03-29T04:17:26.222Z,5.13
2018-03-29T04:19:57.183Z,5.87
2018-03-29T04:22:27.966Z,5.37
2018-03-29T04:24:58.837Z,5.70
2018-03-29T04:27:29.716Z,4.97
2018-03-29T04:30:00.570Z,5.23
2018-03-29T04:32:31.405Z,4.90
2018-03-29T04:35:02.293Z,4.93
2018-03-29T04:37:33.163Z,5.27
2018-03-29T04:40:04.037Z,5.07
2018-03-29T04:42:34.840Z,5.17
2018-03-29T04:45:05.698Z,4.50
2018-03-29T04:47:36.511Z,4.70
2018-03-29T04:50:07.348Z,4.07
2018-03-29T04:52:38.195Z,4.63
2018-03-29T04:55:09.040Z,4.80
2018-03-29T04:57:39.876Z,4.97
2018-03-29T05:00:10.795Z,4.87
2018-03-29T05:02:41.623Z,4.70
2018-03-29T05:05:12.480Z,5.73
2018-03-29T05:07:43.337Z,5.50
2018-03-29T05:10:14.185Z,5.70
2018-03-29T05:12:45.059Z,5.93
2018-03-29T05:15:15.927Z,5.70
2018-03-29T05:17:46.796Z,5.90
2018-03-29T05:20:17.693Z,5.30
2018-03-29T05:22:48.545Z,6.17
2018-03-29T05:25:19.385Z,6.30
2018-03-29T05:27:53.185Z,7.13
2018-03-29T05:30:24.086Z,6.85
2018-03-29T05:32:54.922Z,6.60
2018-03-29T05:35:25.794Z,8.20
2018-03-29T05:37:56.622Z,6.07
2018-03-29T05:40:27.478Z,5.90
2018-03-29T05:42:58.409Z,9.40
2018-03-29T05:45:29.223Z,6.20
2018-03-29T05:48:00.054Z,7.07
2018-03-29T05:50:30.902Z,5.57
2018-03-29T05:53:01.769Z,6.20
2018-03-29T05:55:32.612Z,6.60
2018-03-29T05:58:03.472Z,7.10
2018-03-29T06:00:34.297Z,6.57
2018-03-29T06:03:05.146Z,6.93
2018-03-29T06:05:36.001Z,6.30
2018-03-29T06:08:06.896Z,6.93
2018-03-29T06:10:37.808Z,5.90
2018-03-29T06:13:08.652Z,6.20
2018-03-29T06:15:39.510Z,5.70
2018-03-29T06:18:13.194Z,7.13
2018-03-29T06:20:44.088Z,5.65
2018-03-29T06:23:14.991Z,6.33
2018-03-29T06:25:45.782Z,6.87
2018-03-29T06:28:16.601Z,6.20
2018-03-29T06:30:47.506Z,6.10
2018-03-29T06:33:18.385Z,5.60
2018-03-29T06:35:49.265Z,5.50
2018-03-29T06:38:20.114Z,5.60
2018-03-29T06:40:50.966Z,4.93
2018-03-29T06:43:21.804Z,5.67
2018-03-29T06:45:52.686Z,5.60
2018-03-29T06:48:23.530Z,6.50
2018-03-29T06:50:54.392Z,5.20
2018-03-29T06:53:25.251Z,4.43
2018-03-29T06:55:56.085Z,8.50
2018-03-29T06:58:26.954Z,5.23
2018-03-29T07:00:57.873Z,5.63
2018-03-29T07:03:28.666Z,4.50
2018-03-29T07:05:59.521Z,4.47
2018-03-29T07:08:32.410Z,4.00
2018-03-29T07:11:03.251Z,3.80
2018-03-29T07:13:34.091Z,3.50
2018-03-29T07:16:04.946Z,4.50
2018-03-29T07:18:35.761Z,4.53
2018-03-29T07:21:06.588Z,3.50
2018-03-29T07:23:37.424Z,4.30
2018-03-29T07:26:08.253Z,3.80
2018-03-29T07:28:39.080Z,3.90
2018-03-29T07:31:11.097Z,4.33
2018-03-29T07:33:41.969Z,4.12
2018-03-29T07:36:12.793Z,5.03
2018-03-29T07:38:45.666Z,4.53
2018-03-29T07:41:16.545Z,4.68
2018-03-29T07:43:47.394Z,5.00
2018-03-29T07:46:18.220Z,4.40
2018-03-29T07:48:49.009Z,4.43
2018-03-29T07:51:19.842Z,4.50
2018-03-29T07:53:50.688Z,4.70
2018-03-29T07:56:21.518Z,5.50
2018-03-29T07:58:52.396Z,7.00
2018-03-29T08:01:23.233Z,5.83
2018-03-29T08:03:54.122Z,5.70
2018-03-29T08:06:24.946Z,5.73
2018-03-29T08:08:55.758Z,5.70
2018-03-29T08:11:26.590Z,5.97
2018-03-29T08:13:57.409Z,5.20
2018-03-29T08:16:28.262Z,5.43
2018-03-29T08:18:59.134Z,5.73
2018-03-29T08:21:29.944Z,5.63
2018-03-29T08:24:00.768Z,5.63
2018-03-29T08:26:31.614Z,4.80
2018-03-29T08:29:02.483Z,5.10
2018-03-29T08:31:33.334Z,4.80
2018-03-29T08:34:04.156Z,5.00
2018-03-29T08:36:35.043Z,4.50
2018-03-29T08:39:05.873Z,5.40
2018-03-29T08:41:36.745Z,4.83
2018-03-29T08:44:07.618Z,4.90
2018-03-29T08:46:38.486Z,4.57
2018-03-29T08:49:09.337Z,4.33
2018-03-29T08:51:40.261Z,4.30
2018-03-29T08:54:11.132Z,4.50
2018-03-29T08:56:42.010Z,4.20
2018-03-29T08:59:12.831Z,3.67
2018-03-29T09:01:43.716Z,4.53
2018-03-29T09:04:14.589Z,4.00
2018-03-29T09:06:45.448Z,3.93
2018-03-29T09:09:16.372Z,4.17
2018-03-29T09:11:47.265Z,4.27
2018-03-29T09:14:18.120Z,4.50
2018-03-29T09:16:49.009Z,3.80
2018-03-29T09:19:19.841Z,4.10
2018-03-29T09:21:50.682Z,4.07
2018-03-29T09:24:21.522Z,3.90
2018-03-29T09:26:52.389Z,3.90
2018-03-29T09:29:23.281Z,4.33
2018-03-29T09:31:54.231Z,4.30
2018-03-29T09:34:25.106Z,3.20
2018-03-29T09:36:56.035Z,4.07
2018-03-29T09:39:26.912Z,4.07
2018-03-29T09:41:57.777Z,3.97
2018-03-29T09:44:28.704Z,3.80
2018-03-29T09:46:59.586Z,4.73
2018-03-29T09:49:30.425Z,3.93
2018-03-29T09:52:01.387Z,3.30
2018-03-29T09:54:32.255Z,5.37
2018-03-29T09:57:03.418Z,3.77
2018-03-29T09:59:34.306Z,3.80
2018-03-29T10:02:11.298Z,3.90
2018-03-29T10:04:42.218Z,3.70
2018-03-29T10:07:19.298Z,3.33
2018-03-29T10:09:50.186Z,3.40
2018-03-29T10:12:21.055Z,3.40
2018-03-29T10:14:51.900Z,3.20
2018-03-29T10:17:22.742Z,3.00
2018-03-29T10:19:53.621Z,3.30
2018-03-29T10:22:24.474Z,2.83
2018-03-29T10:24:55.349Z,3.20
2018-03-29T10:27:26.236Z,3.43
2018-03-29T10:29:57.124Z,3.70
2018-03-29T10:32:27.988Z,3.87
2018-03-29T10:34:58.855Z,3.13
2018-03-29T10:37:29.758Z,3.50
2018-03-29T10:40:00.592Z,3.53
2018-03-29T10:42:31.498Z,3.13
2018-03-29T10:45:02.355Z,2.17
2018-03-29T10:47:33.197Z,3.47
2018-03-29T10:50:04.138Z,3.00
2018-03-29T10:52:35.011Z,3.63
2018-03-29T10:55:05.888Z,2.90
2018-03-29T10:57:36.733Z,2.83
2018-03-29T11:00:08.623Z,3.10
2018-03-29T11:02:39.532Z,3.10
2018-03-29T11:05:10.395Z,2.63
2018-03-29T11:07:41.253Z,2.97
2018-03-29T11:10:12.089Z,2.50
2018-03-29T11:12:42.973Z,2.67
2018-03-29T11:15:13.886Z,2.50
2018-03-29T11:17:44.818Z,2.70
2018-03-29T11:20:15.684Z,2.73
2018-03-29T11:22:46.552Z,2.60
2018-03-29T11:25:17.387Z,2.60
2018-03-29T11:27:48.259Z,2.87
2018-03-29T11:30:19.155Z,2.73
2018-03-29T11:32:49.997Z,2.87
2018-03-29T11:35:20.796Z,2.93
2018-03-29T11:37:51.682Z,2.57
2018-03-29T11:40:22.532Z,2.83
2018-03-29T11:42:53.416Z,2.50
2018-03-29T11:45:24.279Z,3.77
2018-03-29T11:47:55.196Z,3.00
2018-03-29T11:50:26.086Z,2.87
2018-03-29T11:52:57.017Z,4.60
2018-03-29T11:55:28.928Z,4.00
2018-03-29T11:57:59.796Z,3.20
2018-03-29T12:00:31.508Z,2.17
2018-03-29T12:03:02.460Z,2.33
2018-03-29T12:05:33.325Z,2.30
2018-03-29T12:08:04.267Z,2.20
2018-03-29T12:10:35.099Z,2.17
2018-03-29T12:13:06.020Z,2.70
2018-03-29T12:15:36.910Z,1.97
2018-03-29T12:18:07.793Z,2.30
2018-03-29T12:20:38.678Z,2.10
2018-03-29T12:23:09.520Z,1.80
2018-03-29T12:25:40.394Z,3.20
2018-03-29T12:28:11.273Z,2.47
2018-03-29T12:30:42.097Z,2.07
2018-03-29T12:33:12.971Z,2.10
2018-03-29T12:35:43.797Z,2.00
2018-03-29T12:38:14.631Z,2.30
2018-03-29T12:40:45.443Z,2.47
2018-03-29T12:43:16.333Z,2.73
2018-03-29T12:45:47.135Z,5.33
2018-03-29T12:48:17.952Z,2.80
2018-03-29T12:50:48.718Z,2.37
2018-03-29T12:53:20.439Z,2.90
2018-03-29T12:55:51.288Z,2.40
2018-03-29T12:58:22.154Z,2.60
2018-03-29T13:00:53.014Z,2.30
2018-03-29T13:03:23.890Z,2.47
2018-03-29T13:05:54.768Z,2.50
2018-03-29T13:08:25.565Z,2.70
2018-03-29T13:10:56.401Z,1.87
2018-03-29T13:13:27.208Z,2.47
2018-03-29T13:15:58.054Z,2.10
2018-03-29T13:18:28.911Z,2.00
2018-03-29T13:20:59.759Z,2.17
2018-03-29T13:23:30.619Z,2.27
2018-03-29T13:26:01.454Z,1.90
2018-03-29T13:28:32.370Z,2.80
2018-03-29T13:31:03.298Z,2.73
2018-03-29T13:33:34.144Z,2.43
2018-03-29T13:36:04.972Z,5.20
2018-03-29T13:38:35.794Z,2.17
2018-03-29T13:41:06.594Z,2.43
2018-03-29T13:43:37.447Z,2.10
2018-03-29T13:46:08.386Z,2.13
2018-03-29T13:48:39.280Z,2.23
2018-03-29T13:51:10.092Z,2.70
2018-03-29T13:53:41.019Z,3.33
2018-03-29T13:56:11.889Z,2.53
2018-03-29T13:58:42.721Z,2.17
2018-03-29T14:01:13.538Z,2.37
2018-03-29T14:03:44.435Z,2.27
2018-03-29T14:06:15.257Z,2.40
2018-03-29T14:08:46.125Z,2.70
2018-03-29T14:11:16.960Z,2.97
2018-03-29T14:13:47.903Z,2.43
2018-03-29T14:16:18.748Z,2.50
2018-03-29T14:18:49.590Z,2.00
2018-03-29T14:21:20.382Z,2.07
2018-03-29T14:23:51.346Z,1.87
2018-03-29T14:26:22.196Z,2.43
2018-03-29T14:28:53.037Z,2.30
2018-03-29T14:31:23.870Z,2.10
2018-03-29T14:33:54.794Z,2.20
2018-03-29T14:36:25.715Z,2.67
2018-03-29T14:38:56.576Z,2.60
2018-03-29T14:41:27.457Z,2.10
2018-03-29T14:43:58.259Z,2.70
2018-03-29T14:46:29.111Z,2.50
2018-03-29T14:48:59.932Z,2.53
2018-03-29T14:51:30.738Z,2.97
2018-03-29T14:54:01.587Z,2.73
2018-03-29T14:56:32.444Z,2.43
2018-03-29T14:59:03.282Z,3.00
2018-03-29T15:01:34.110Z,2.50
2018-03-29T15:04:04.956Z,2.57
2018-03-29T15:06:35.844Z,2.57
2018-03-29T15:09:06.714Z,2.60
2018-03-29T15:11:37.534Z,2.20
2018-03-29T15:14:08.399Z,2.70
2018-03-29T15:16:39.186Z,2.70
2018-03-29T15:19:10.051Z,2.77
2018-03-29T15:21:40.910Z,2.83
2018-03-29T15:24:11.769Z,2.80
2018-03-29T15:26:42.584Z,2.20
2018-03-29T15:29:13.547Z,2.90
2018-03-29T15:31:44.356Z,3.17
2018-03-29T15:34:15.193Z,4.07
2018-03-29T15:36:46.039Z,4.13
2018-03-29T15:39:16.859Z,2.27
2018-03-29T15:41:47.714Z,3.70
2018-03-29T15:44:18.565Z,4.10
2018-03-29T15:46:49.378Z,3.47
2018-03-29T15:49:22.160Z,2.53
2018-03-29T15:51:52.941Z,2.73
2018-03-29T15:54:23.796Z,2.30
2018-03-29T15:56:54.620Z,2.90
2018-03-29T15:59:25.487Z,3.60
2018-03-29T16:01:56.324Z,2.60
2018-03-29T16:04:27.198Z,3.30
2018-03-29T16:06:58.025Z,2.57
2018-03-29T16:09:28.870Z,3.60
2018-03-29T16:11:59.749Z,2.43
2018-03-29T16:14:30.615Z,2.90
2018-03-29T16:17:01.466Z,2.87
2018-03-29T16:19:32.317Z,3.57
2018-03-29T16:22:03.143Z,2.53
2018-03-29T16:24:33.978Z,2.80
2018-03-29T16:27:04.803Z,2.33
2018-03-29T16:29:35.639Z,2.47
2018-03-29T16:32:06.487Z,3.00
2018-03-29T16:34:37.297Z,2.90
2018-03-29T16:37:08.100Z,3.00
2018-03-29T16:39:38.954Z,2.97
2018-03-29T16:42:09.774Z,2.63
2018-03-29T16:44:40.622Z,2.50
2018-03-29T16:47:11.464Z,2.93
2018-03-29T16:49:42.333Z,2.97
2018-03-29T16:52:13.171Z,3.10
2018-03-29T16:54:44.060Z,2.50
2018-03-29T16:57:14.938Z,2.87
2018-03-29T16:59:45.777Z,2.93
2018-03-29T17:02:16.584Z,2.77
2018-03-29T17:04:47.420Z,3.73
2018-03-29T17:07:18.250Z,2.47
2018-03-29T17:09:49.127Z,3.10
2018-03-29T17:12:19.965Z,3.20
2018-03-29T17:14:50.834Z,2.53
2018-03-29T17:17:21.703Z,2.70
2018-03-29T17:19:52.579Z,2.67
2018-03-29T17:22:23.377Z,2.43
2018-03-29T17:24:54.262Z,2.60
2018-03-29T17:27:26.073Z,2.63
2018-03-29T17:29:57.838Z,3.70
2018-03-29T17:32:35.577Z,2.83
2018-03-29T17:35:06.439Z,4.00
2018-03-29T17:37:37.297Z,3.10
2018-03-29T17:40:08.098Z,3.00
2018-03-29T17:42:38.902Z,3.03
2018-03-29T17:45:09.741Z,3.33
2018-03-29T17:47:40.590Z,3.40
2018-03-29T17:50:11.430Z,3.23
2018-03-29T17:52:42.304Z,5.80
2018-03-29T17:55:13.153Z,4.10
2018-03-29T17:57:43.994Z,3.00
2018-03-29T18:00:14.827Z,3.90
2018-03-29T18:02:45.615Z,3.80
2018-03-29T18:05:16.434Z,3.70
2018-03-29T18:07:47.239Z,3.60
2018-03-29T18:10:18.066Z,4.37
2018-03-29T18:12:48.951Z,3.53
2018-03-29T18:15:19.782Z,3.90
2018-03-29T18:17:50.608Z,6.27
2018-03-29T18:20:21.466Z,3.50
2018-03-29T18:22:52.296Z,3.40
2018-03-29T18:25:23.183Z,4.80
2018-03-29T18:27:54.046Z,5.37
2018-03-29T18:30:24.911Z,5.47
2018-03-29T18:32:55.754Z,4.97
2018-03-29T18:35:26.621Z,5.33
2018-03-29T18:37:57.499Z,4.53
2018-03-29T18:40:28.442Z,6.63
2018-03-29T18:42:59.275Z,5.00
2018-03-29T18:45:30.219Z,5.17
2018-03-29T18:48:01.066Z,5.90
2018-03-29T18:50:31.964Z,5.90
2018-03-29T18:53:02.821Z,5.67
2018-03-29T18:55:33.748Z,4.77
2018-03-29T18:58:05.641Z,4.67
2018-03-29T19:00:36.521Z,5.78
2018-03-29T19:03:07.401Z,4.20
2018-03-29T19:05:38.301Z,5.50
2018-03-29T19:08:09.158Z,4.97
2018-03-29T19:10:39.984Z,4.50
2018-03-29T19:13:10.848Z,4.63
2018-03-29T19:15:41.688Z,4.40
2018-03-29T19:18:12.546Z,4.67
2018-03-29T19:20:43.463Z,8.90
2018-03-29T19:23:14.299Z,8.47
2018-03-29T19:25:45.206Z,7.40
2018-03-29T19:28:16.062Z,5.73
2018-03-29T19:30:46.894Z,6.53
2018-03-29T19:33:17.748Z,4.77
2018-03-29T19:35:48.592Z,5.10
2018-03-29T19:38:19.487Z,5.93
2018-03-29T19:40:50.378Z,4.20
2018-03-29T19:43:21.231Z,9.37
2018-03-29T19:45:52.122Z,4.63
2018-03-29T19:48:22.971Z,4.23
2018-03-29T19:50:53.864Z,4.70
2018-03-29T19:53:24.744Z,5.23
2018-03-29T19:55:55.626Z,4.77
2018-03-29T19:58:26.458Z,4.80
2018-03-29T20:00:57.294Z,5.67
2018-03-29T20:03:28.149Z,5.40
2018-03-29T20:05:59.053Z,5.00
2018-03-29T20:08:29.923Z,4.97
2018-03-29T20:11:00.887Z,5.30
2018-03-29T20:13:31.709Z,5.07
2018-03-29T20:16:02.604Z,4.97
2018-03-29T20:18:33.522Z,4.50
2018-03-29T20:21:05.136Z,5.17
2018-03-29T20:23:35.970Z,3.95
2018-03-29T20:26:06.804Z,6.17
2018-03-29T20:28:37.645Z,4.17
2018-03-29T20:31:08.503Z,4.47
2018-03-29T20:33:39.356Z,4.30
2018-03-29T20:36:10.276Z,4.63
2018-03-29T20:38:41.096Z,4.13
2018-03-29T20:41:13.035Z,4.03
2018-03-29T20:43:43.893Z,3.92
2018-03-29T20:46:14.726Z,3.27
2018-03-29T20:48:45.538Z,3.57
2018-03-29T20:51:16.373Z,4.60
2018-03-29T20:53:47.210Z,4.47
2018-03-29T20:56:18.050Z,3.60
2018-03-29T20:58:48.845Z,4.90
2018-03-29T21:01:19.723Z,4.30
2018-03-29T21:03:50.603Z,7.03
2018-03-29T21:06:21.461Z,4.57
2018-03-29T21:08:52.292Z,5.10
2018-03-29T21:11:23.126Z,4.80
2018-03-29T21:13:53.973Z,5.00
2018-03-29T21:16:24.916Z,6.23
2018-03-29T21:18:55.680Z,5.17
2018-03-29T21:21:26.513Z,4.87
2018-03-29T21:23:57.391Z,4.70
2018-03-29T21:26:28.234Z,4.80
2018-03-29T21:28:59.132Z,4.40
2018-03-29T21:31:29.930Z,5.17
2018-03-29T21:34:00.759Z,4.60
2018-03-29T21:36:31.630Z,10.63
2018-03-29T21:39:02.456Z,5.53
2018-03-29T21:41:33.420Z,5.27
2018-03-29T21:44:04.308Z,5.68
2018-03-29T21:46:35.182Z,8.63
2018-03-29T21:49:06.018Z,5.90
2018-03-29T21:51:36.888Z,7.87
2018-03-29T21:54:07.682Z,8.30
2018-03-29T21:56:38.569Z,9.93
2018-03-29T21:59:09.431Z,6.57
2018-03-29T22:01:47.396Z,6.83
2018-03-29T22:04:18.194Z,9.02
2018-03-29T22:06:49.034Z,6.27
2018-03-29T22:09:19.819Z,7.07
2018-03-29T22:11:50.681Z,7.10
2018-03-29T22:14:22.542Z,5.80
2018-03-29T22:16:53.434Z,6.65
2018-03-29T22:19:24.329Z,7.33
2018-03-29T22:21:55.233Z,7.30
2018-03-29T22:24:26.071Z,7.50
2018-03-29T22:26:56.926Z,6.53
2018-03-29T22:29:27.762Z,8.33
2018-03-29T22:31:58.643Z,6.60
2018-03-29T22:34:29.508Z,6.70
2018-03-29T22:37:00.358Z,6.40
2018-03-29T22:39:31.150Z,6.30
2018-03-29T22:42:01.979Z,6.77
2018-03-29T22:44:32.847Z,6.50
2018-03-29T22:47:03.721Z,7.30
2018-03-29T22:49:34.634Z,12.80
2018-03-29T22:52:05.494Z,8.50
2018-03-29T22:54:36.309Z,6.57
2018-03-29T22:57:07.177Z,10.87
2018-03-29T22:59:38.003Z,8.57
2018-03-29T23:02:08.869Z,7.60
2018-03-29T23:04:39.697Z,9.23
2018-03-29T23:07:10.692Z,6.63
2018-03-29T23:09:41.491Z,7.12
2018-03-29T23:12:12.290Z,7.57
2018-03-29T23:14:43.106Z,9.90
2018-03-29T23:17:13.999Z,9.07
2018-03-29T23:19:44.831Z,8.30
2018-03-29T23:22:15.709Z,7.30
2018-03-29T23:24:46.539Z,7.40
2018-03-29T23:27:17.386Z,5.40
2018-03-29T23:29:48.273Z,6.47
2018-03-29T23:32:19.109Z,6.67
2018-03-29T23:34:49.937Z,6.07
2018-03-29T23:37:20.759Z,5.50
2018-03-29T23:39:51.621Z,7.03
2018-03-29T23:42:22.455Z,6.17
2018-03-29T23:44:53.303Z,7.20
2018-03-29T23:47:24.190Z,6.67
2018-03-29T23:49:55.024Z,7.37
2018-03-29T23:52:25.857Z,8.20
2018-03-29T23:54:56.729Z,8.03
2018-03-29T23:57:27.557Z,7.20
2018-03-29T23:59:58.398Z,7.27
